sensor_id;sensor_type;location;lat;lon;timestamp;P1;durP1;ratioP1;P2;durP2;ratioP2
5465;SDS011;2755;50.728;7.108;2022-11-20T00:01:46;26.73;;;14.40;;
5465;SDS011;2755;50.728;7.108;2022-11-20T00:04:12;25.57;;;14.93;;
5465;SDS011;2755;50.728;7.108;2022-11-20T00:06:37;31.00;;;15.87;;
5465;SDS011;2755;50.728;7.108;2022-11-20T00:09:03;24.23;;;13.77;;
5465;SDS011;2755;50.728;7.108;2022-11-20T00:11:30;22.83;;;13.83;;
5465;SDS011;2755;50.728;7.108;2022-11-20T00:13:57;31.27;;;17.37;;
5465;SDS011;2755;50.728;7.108;2022-11-20T00:16:25;29.17;;;16.07;;
5465;SDS011;2755;50.728;7.108;2022-11-20T00:18:52;32.60;;;14.13;;
5465;SDS011;2755;50.728;7.108;2022-11-20T00:23:45;25.33;;;14.20;;
5465;SDS011;2755;50.728;7.108;2022-11-20T00:26:14;29.13;;;15.23;;
5465;SDS011;2755;50.728;7.108;2022-11-20T00:28:42;28.60;;;15.80;;
5465;SDS011;2755;50.728;7.108;2022-11-20T00:31:11;26.93;;;15.20;;
5465;SDS011;2755;50.728;7.108;2022-11-20T00:33:38;31.50;;;16.63;;
5465;SDS011;2755;50.728;7.108;2022-11-20T00:36:05;23.43;;;13.30;;
5465;SDS011;2755;50.728;7.108;2022-11-20T00:38:33;28.00;;;14.33;;
5465;SDS011;2755;50.728;7.108;2022-11-20T00:40:59;23.20;;;13.83;;
5465;SDS011;2755;50.728;7.108;2022-11-20T00:43:29;25.77;;;15.07;;
5465;SDS011;2755;50.728;7.108;2022-11-20T00:45:56;26.90;;;14.53;;
5465;SDS011;2755;50.728;7.108;2022-11-20T00:48:26;25.73;;;14.03;;
5465;SDS011;2755;50.728;7.108;2022-11-20T00:50:52;25.40;;;15.13;;
5465;SDS011;2755;50.728;7.108;2022-11-20T00:53:18;38.57;;;17.13;;
5465;SDS011;2755;50.728;7.108;2022-11-20T00:55:58;28.80;;;16.07;;
5465;SDS011;2755;50.728;7.108;2022-11-20T00:58:32;29.93;;;15.33;;
5465;SDS011;2755;50.728;7.108;2022-11-20T01:01:03;24.90;;;14.90;;
5465;SDS011;2755;50.728;7.108;2022-11-20T01:03:34;30.33;;;14.63;;
5465;SDS011;2755;50.728;7.108;2022-11-20T01:06:03;33.43;;;16.80;;
5465;SDS011;2755;50.728;7.108;2022-11-20T01:08:31;31.37;;;15.90;;
5465;SDS011;2755;50.728;7.108;2022-11-20T01:10:58;31.80;;;16.33;;
5465;SDS011;2755;50.728;7.108;2022-11-20T01:13:25;32.53;;;15.43;;
5465;SDS011;2755;50.728;7.108;2022-11-20T01:16:11;31.70;;;16.47;;
5465;SDS011;2755;50.728;7.108;2022-11-20T01:18:38;25.37;;;14.57;;
5465;SDS011;2755;50.728;7.108;2022-11-20T01:21:07;31.63;;;16.70;;
5465;SDS011;2755;50.728;7.108;2022-11-20T01:23:38;29.90;;;16.80;;
5465;SDS011;2755;50.728;7.108;2022-11-20T01:26:09;28.73;;;15.27;;
5465;SDS011;2755;50.728;7.108;2022-11-20T01:28:38;29.73;;;16.77;;
5465;SDS011;2755;50.728;7.108;2022-11-20T01:31:11;29.87;;;16.87;;
5465;SDS011;2755;50.728;7.108;2022-11-20T01:33:39;27.27;;;14.37;;
5465;SDS011;2755;50.728;7.108;2022-11-20T01:36:06;26.20;;;14.93;;
5465;SDS011;2755;50.728;7.108;2022-11-20T01:38:32;26.03;;;15.07;;
5465;SDS011;2755;50.728;7.108;2022-11-20T01:40:58;26.03;;;15.10;;
5465;SDS011;2755;50.728;7.108;2022-11-20T01:43:24;27.17;;;14.77;;
5465;SDS011;2755;50.728;7.108;2022-11-20T01:45:56;31.50;;;14.60;;
5465;SDS011;2755;50.728;7.108;2022-11-20T01:48:23;22.47;;;12.80;;
5465;SDS011;2755;50.728;7.108;2022-11-20T01:50:53;27.67;;;15.23;;
5465;SDS011;2755;50.728;7.108;2022-11-20T01:53:21;26.37;;;14.93;;
5465;SDS011;2755;50.728;7.108;2022-11-20T01:55:49;20.70;;;12.27;;
5465;SDS011;2755;50.728;7.108;2022-11-20T01:58:21;23.57;;;13.30;;
5465;SDS011;2755;50.728;7.108;2022-11-20T02:00:52;26.60;;;16.00;;
5465;SDS011;2755;50.728;7.108;2022-11-20T02:03:18;27.90;;;16.40;;
5465;SDS011;2755;50.728;7.108;2022-11-20T02:05:50;24.73;;;15.07;;
5465;SDS011;2755;50.728;7.108;2022-11-20T02:08:28;26.80;;;13.33;;
5465;SDS011;2755;50.728;7.108;2022-11-20T02:10:55;22.50;;;13.10;;
5465;SDS011;2755;50.728;7.108;2022-11-20T02:13:21;20.83;;;12.50;;
5465;SDS011;2755;50.728;7.108;2022-11-20T02:16:08;27.47;;;14.27;;
5465;SDS011;2755;50.728;7.108;2022-11-20T02:18:45;29.73;;;15.23;;
5465;SDS011;2755;50.728;7.108;2022-11-20T02:26:26;32.63;;;17.00;;
5465;SDS011;2755;50.728;7.108;2022-11-20T02:28:54;30.90;;;16.63;;
5465;SDS011;2755;50.728;7.108;2022-11-20T02:31:20;32.87;;;17.20;;
5465;SDS011;2755;50.728;7.108;2022-11-20T02:33:45;26.70;;;15.60;;
5465;SDS011;2755;50.728;7.108;2022-11-20T02:36:11;25.83;;;15.50;;
5465;SDS011;2755;50.728;7.108;2022-11-20T02:38:41;24.97;;;14.30;;
5465;SDS011;2755;50.728;7.108;2022-11-20T02:41:07;28.57;;;14.60;;
5465;SDS011;2755;50.728;7.108;2022-11-20T02:43:33;25.17;;;13.33;;
5465;SDS011;2755;50.728;7.108;2022-11-20T02:45:58;28.17;;;15.40;;
5465;SDS011;2755;50.728;7.108;2022-11-20T02:48:24;30.50;;;15.87;;
5465;SDS011;2755;50.728;7.108;2022-11-20T02:50:50;26.63;;;15.30;;
5465;SDS011;2755;50.728;7.108;2022-11-20T02:53:15;23.57;;;13.37;;
5465;SDS011;2755;50.728;7.108;2022-11-20T02:55:41;31.37;;;16.90;;
5465;SDS011;2755;50.728;7.108;2022-11-20T02:58:06;26.93;;;14.80;;
5465;SDS011;2755;50.728;7.108;2022-11-20T03:00:32;33.20;;;16.63;;
5465;SDS011;2755;50.728;7.108;2022-11-20T03:02:58;30.60;;;15.07;;
5465;SDS011;2755;50.728;7.108;2022-11-20T03:05:24;24.47;;;13.30;;
5465;SDS011;2755;50.728;7.108;2022-11-20T03:07:49;28.37;;;14.37;;
5465;SDS011;2755;50.728;7.108;2022-11-20T03:10:15;26.73;;;15.20;;
5465;SDS011;2755;50.728;7.108;2022-11-20T03:12:41;26.70;;;15.67;;
5465;SDS011;2755;50.728;7.108;2022-11-20T03:15:06;29.30;;;14.83;;
5465;SDS011;2755;50.728;7.108;2022-11-20T03:17:32;30.37;;;14.17;;
5465;SDS011;2755;50.728;7.108;2022-11-20T03:19:58;27.30;;;13.87;;
5465;SDS011;2755;50.728;7.108;2022-11-20T03:22:24;27.10;;;13.60;;
5465;SDS011;2755;50.728;7.108;2022-11-20T03:24:50;25.90;;;12.83;;
5465;SDS011;2755;50.728;7.108;2022-11-20T03:27:16;23.93;;;12.90;;
5465;SDS011;2755;50.728;7.108;2022-11-20T03:29:41;22.30;;;13.73;;
5465;SDS011;2755;50.728;7.108;2022-11-20T03:32:07;28.87;;;14.20;;
5465;SDS011;2755;50.728;7.108;2022-11-20T03:34:33;25.27;;;13.63;;
5465;SDS011;2755;50.728;7.108;2022-11-20T03:36:59;27.37;;;14.23;;
5465;SDS011;2755;50.728;7.108;2022-11-20T03:39:24;27.70;;;15.50;;
5465;SDS011;2755;50.728;7.108;2022-11-20T03:41:51;25.63;;;14.60;;
5465;SDS011;2755;50.728;7.108;2022-11-20T03:44:17;29.27;;;15.20;;
5465;SDS011;2755;50.728;7.108;2022-11-20T03:46:46;33.47;;;16.30;;
5465;SDS011;2755;50.728;7.108;2022-11-20T03:49:11;26.77;;;14.97;;
5465;SDS011;2755;50.728;7.108;2022-11-20T03:51:37;28.73;;;16.17;;
5465;SDS011;2755;50.728;7.108;2022-11-20T03:54:04;30.50;;;14.10;;
5465;SDS011;2755;50.728;7.108;2022-11-20T03:56:33;27.57;;;13.50;;
5465;SDS011;2755;50.728;7.108;2022-11-20T03:59:01;26.13;;;14.17;;
5465;SDS011;2755;50.728;7.108;2022-11-20T04:01:29;30.83;;;15.23;;
5465;SDS011;2755;50.728;7.108;2022-11-20T04:03:57;27.10;;;13.10;;
5465;SDS011;2755;50.728;7.108;2022-11-20T04:06:24;30.10;;;15.60;;
5465;SDS011;2755;50.728;7.108;2022-11-20T04:08:53;30.00;;;16.43;;
5465;SDS011;2755;50.728;7.108;2022-11-20T04:11:30;27.33;;;15.10;;
5465;SDS011;2755;50.728;7.108;2022-11-20T04:14:01;28.20;;;14.00;;
5465;SDS011;2755;50.728;7.108;2022-11-20T04:16:29;28.70;;;13.40;;
5465;SDS011;2755;50.728;7.108;2022-11-20T04:18:57;36.50;;;15.50;;
5465;SDS011;2755;50.728;7.108;2022-11-20T04:21:24;26.53;;;13.47;;
5465;SDS011;2755;50.728;7.108;2022-11-20T04:23:51;31.30;;;16.00;;
5465;SDS011;2755;50.728;7.108;2022-11-20T04:26:20;36.60;;;17.80;;
5465;SDS011;2755;50.728;7.108;2022-11-20T04:28:47;34.20;;;17.83;;
5465;SDS011;2755;50.728;7.108;2022-11-20T04:31:14;29.97;;;15.20;;
5465;SDS011;2755;50.728;7.108;2022-11-20T04:33:41;36.70;;;17.43;;
5465;SDS011;2755;50.728;7.108;2022-11-20T04:36:12;32.53;;;15.57;;
5465;SDS011;2755;50.728;7.108;2022-11-20T04:38:39;28.67;;;14.10;;
5465;SDS011;2755;50.728;7.108;2022-11-20T04:41:06;37.67;;;17.93;;
5465;SDS011;2755;50.728;7.108;2022-11-20T04:43:34;27.50;;;13.27;;
5465;SDS011;2755;50.728;7.108;2022-11-20T04:46:00;33.90;;;16.90;;
5465;SDS011;2755;50.728;7.108;2022-11-20T04:48:26;38.20;;;17.03;;
5465;SDS011;2755;50.728;7.108;2022-11-20T04:50:52;34.90;;;16.80;;
5465;SDS011;2755;50.728;7.108;2022-11-20T04:53:19;26.53;;;14.33;;
5465;SDS011;2755;50.728;7.108;2022-11-20T04:55:45;32.73;;;14.80;;
5465;SDS011;2755;50.728;7.108;2022-11-20T04:58:11;29.20;;;14.47;;
5465;SDS011;2755;50.728;7.108;2022-11-20T05:00:37;34.00;;;16.70;;
5465;SDS011;2755;50.728;7.108;2022-11-20T05:03:02;29.10;;;15.43;;
5465;SDS011;2755;50.728;7.108;2022-11-20T05:05:28;25.07;;;14.10;;
5465;SDS011;2755;50.728;7.108;2022-11-20T05:07:55;29.13;;;15.63;;
5465;SDS011;2755;50.728;7.108;2022-11-20T05:10:22;30.40;;;14.77;;
5465;SDS011;2755;50.728;7.108;2022-11-20T05:12:48;30.63;;;15.30;;
5465;SDS011;2755;50.728;7.108;2022-11-20T05:15:14;25.80;;;13.87;;
5465;SDS011;2755;50.728;7.108;2022-11-20T05:17:40;29.87;;;15.00;;
5465;SDS011;2755;50.728;7.108;2022-11-20T05:20:05;31.00;;;16.30;;
5465;SDS011;2755;50.728;7.108;2022-11-20T05:22:32;28.43;;;14.53;;
5465;SDS011;2755;50.728;7.108;2022-11-20T05:24:57;22.57;;;12.07;;
5465;SDS011;2755;50.728;7.108;2022-11-20T05:27:23;27.67;;;14.17;;
5465;SDS011;2755;50.728;7.108;2022-11-20T05:29:48;26.57;;;13.53;;
5465;SDS011;2755;50.728;7.108;2022-11-20T05:32:14;24.40;;;12.70;;
5465;SDS011;2755;50.728;7.108;2022-11-20T05:34:39;27.73;;;14.17;;
5465;SDS011;2755;50.728;7.108;2022-11-20T05:37:05;38.33;;;16.97;;
5465;SDS011;2755;50.728;7.108;2022-11-20T05:39:31;30.60;;;16.63;;
5465;SDS011;2755;50.728;7.108;2022-11-20T05:41:57;28.17;;;14.97;;
5465;SDS011;2755;50.728;7.108;2022-11-20T05:44:42;29.20;;;13.13;;
5465;SDS011;2755;50.728;7.108;2022-11-20T05:47:08;30.93;;;15.80;;
5465;SDS011;2755;50.728;7.108;2022-11-20T05:49:34;29.70;;;15.20;;
5465;SDS011;2755;50.728;7.108;2022-11-20T05:52:00;31.90;;;16.40;;
5465;SDS011;2755;50.728;7.108;2022-11-20T05:54:25;28.17;;;12.50;;
5465;SDS011;2755;50.728;7.108;2022-11-20T05:56:51;32.63;;;14.67;;
5465;SDS011;2755;50.728;7.108;2022-11-20T05:59:17;31.90;;;14.43;;
5465;SDS011;2755;50.728;7.108;2022-11-20T06:01:42;30.80;;;14.63;;
5465;SDS011;2755;50.728;7.108;2022-11-20T06:04:08;27.73;;;13.30;;
5465;SDS011;2755;50.728;7.108;2022-11-20T06:06:34;33.17;;;15.07;;
5465;SDS011;2755;50.728;7.108;2022-11-20T06:09:00;34.20;;;16.37;;
5465;SDS011;2755;50.728;7.108;2022-11-20T06:11:25;27.23;;;14.00;;
5465;SDS011;2755;50.728;7.108;2022-11-20T06:13:51;32.80;;;13.90;;
5465;SDS011;2755;50.728;7.108;2022-11-20T06:16:17;32.17;;;15.40;;
5465;SDS011;2755;50.728;7.108;2022-11-20T06:18:44;26.50;;;13.73;;
5465;SDS011;2755;50.728;7.108;2022-11-20T06:23:41;33.63;;;15.47;;
5465;SDS011;2755;50.728;7.108;2022-11-20T06:26:10;29.63;;;15.60;;
5465;SDS011;2755;50.728;7.108;2022-11-20T06:28:40;30.57;;;15.67;;
5465;SDS011;2755;50.728;7.108;2022-11-20T06:31:07;34.27;;;16.60;;
5465;SDS011;2755;50.728;7.108;2022-11-20T06:33:35;39.13;;;16.73;;
5465;SDS011;2755;50.728;7.108;2022-11-20T06:36:01;30.97;;;15.20;;
5465;SDS011;2755;50.728;7.108;2022-11-20T06:38:27;32.83;;;16.70;;
5465;SDS011;2755;50.728;7.108;2022-11-20T06:40:53;35.23;;;16.17;;
5465;SDS011;2755;50.728;7.108;2022-11-20T06:43:19;29.73;;;15.10;;
5465;SDS011;2755;50.728;7.108;2022-11-20T06:45:45;30.07;;;14.93;;
5465;SDS011;2755;50.728;7.108;2022-11-20T06:48:11;28.43;;;15.60;;
5465;SDS011;2755;50.728;7.108;2022-11-20T06:50:37;27.53;;;13.83;;
5465;SDS011;2755;50.728;7.108;2022-11-20T06:53:03;27.63;;;15.20;;
5465;SDS011;2755;50.728;7.108;2022-11-20T06:55:29;28.27;;;14.97;;
5465;SDS011;2755;50.728;7.108;2022-11-20T06:57:56;26.83;;;14.90;;
5465;SDS011;2755;50.728;7.108;2022-11-20T07:00:22;24.33;;;13.90;;
5465;SDS011;2755;50.728;7.108;2022-11-20T07:02:47;24.70;;;13.20;;
5465;SDS011;2755;50.728;7.108;2022-11-20T07:05:13;29.17;;;15.80;;
5465;SDS011;2755;50.728;7.108;2022-11-20T07:07:39;27.03;;;14.73;;
5465;SDS011;2755;50.728;7.108;2022-11-20T07:10:04;20.80;;;13.03;;
5465;SDS011;2755;50.728;7.108;2022-11-20T07:12:30;29.17;;;14.43;;
5465;SDS011;2755;50.728;7.108;2022-11-20T07:14:56;27.60;;;14.27;;
5465;SDS011;2755;50.728;7.108;2022-11-20T07:17:22;24.70;;;13.67;;
5465;SDS011;2755;50.728;7.108;2022-11-20T07:19:47;29.37;;;14.40;;
5465;SDS011;2755;50.728;7.108;2022-11-20T07:22:13;27.73;;;14.73;;
5465;SDS011;2755;50.728;7.108;2022-11-20T07:24:38;29.23;;;14.40;;
5465;SDS011;2755;50.728;7.108;2022-11-20T07:27:04;25.73;;;14.83;;
5465;SDS011;2755;50.728;7.108;2022-11-20T07:29:30;21.37;;;13.00;;
5465;SDS011;2755;50.728;7.108;2022-11-20T07:31:55;25.70;;;13.70;;
5465;SDS011;2755;50.728;7.108;2022-11-20T07:34:21;28.80;;;15.17;;
5465;SDS011;2755;50.728;7.108;2022-11-20T07:36:47;23.33;;;13.70;;
5465;SDS011;2755;50.728;7.108;2022-11-20T07:39:13;21.93;;;12.53;;
5465;SDS011;2755;50.728;7.108;2022-11-20T07:41:38;22.07;;;11.17;;
5465;SDS011;2755;50.728;7.108;2022-11-20T07:44:04;20.97;;;12.80;;
5465;SDS011;2755;50.728;7.108;2022-11-20T07:46:30;25.73;;;13.70;;
5465;SDS011;2755;50.728;7.108;2022-11-20T07:48:56;26.30;;;13.43;;
5465;SDS011;2755;50.728;7.108;2022-11-20T07:51:21;21.57;;;13.03;;
5465;SDS011;2755;50.728;7.108;2022-11-20T07:53:47;23.13;;;12.83;;
5465;SDS011;2755;50.728;7.108;2022-11-20T07:56:15;28.30;;;14.50;;
5465;SDS011;2755;50.728;7.108;2022-11-20T07:58:40;23.87;;;12.77;;
5465;SDS011;2755;50.728;7.108;2022-11-20T08:01:07;20.23;;;11.17;;
5465;SDS011;2755;50.728;7.108;2022-11-20T08:03:35;20.10;;;11.23;;
5465;SDS011;2755;50.728;7.108;2022-11-20T08:06:04;21.63;;;11.20;;
5465;SDS011;2755;50.728;7.108;2022-11-20T08:08:30;26.50;;;13.17;;
5465;SDS011;2755;50.728;7.108;2022-11-20T08:10:58;21.33;;;11.77;;
5465;SDS011;2755;50.728;7.108;2022-11-20T08:13:43;21.47;;;12.67;;
5465;SDS011;2755;50.728;7.108;2022-11-20T08:16:27;24.97;;;12.63;;
5465;SDS011;2755;50.728;7.108;2022-11-20T08:18:53;21.97;;;13.10;;
5465;SDS011;2755;50.728;7.108;2022-11-20T08:21:19;25.93;;;14.20;;
5465;SDS011;2755;50.728;7.108;2022-11-20T08:23:45;21.93;;;12.17;;
5465;SDS011;2755;50.728;7.108;2022-11-20T08:26:10;22.20;;;12.47;;
5465;SDS011;2755;50.728;7.108;2022-11-20T08:28:36;19.57;;;10.67;;
5465;SDS011;2755;50.728;7.108;2022-11-20T08:31:02;19.80;;;11.73;;
5465;SDS011;2755;50.728;7.108;2022-11-20T08:33:29;21.27;;;12.43;;
5465;SDS011;2755;50.728;7.108;2022-11-20T08:35:58;18.60;;;12.00;;
5465;SDS011;2755;50.728;7.108;2022-11-20T08:38:25;25.50;;;13.50;;
5465;SDS011;2755;50.728;7.108;2022-11-20T08:40:51;25.20;;;15.53;;
5465;SDS011;2755;50.728;7.108;2022-11-20T08:43:35;24.70;;;13.27;;
5465;SDS011;2755;50.728;7.108;2022-11-20T08:46:01;24.27;;;14.67;;
5465;SDS011;2755;50.728;7.108;2022-11-20T08:48:26;23.90;;;14.00;;
5465;SDS011;2755;50.728;7.108;2022-11-20T08:50:52;27.70;;;15.00;;
5465;SDS011;2755;50.728;7.108;2022-11-20T08:53:17;26.83;;;15.30;;
5465;SDS011;2755;50.728;7.108;2022-11-20T08:55:43;25.50;;;14.37;;
5465;SDS011;2755;50.728;7.108;2022-11-20T08:58:08;26.27;;;14.77;;
5465;SDS011;2755;50.728;7.108;2022-11-20T09:00:34;30.67;;;15.43;;
5465;SDS011;2755;50.728;7.108;2022-11-20T09:03:00;27.47;;;14.97;;
5465;SDS011;2755;50.728;7.108;2022-11-20T09:05:26;26.70;;;13.97;;
5465;SDS011;2755;50.728;7.108;2022-11-20T09:07:55;27.30;;;14.30;;
5465;SDS011;2755;50.728;7.108;2022-11-20T09:10:22;28.77;;;16.07;;
5465;SDS011;2755;50.728;7.108;2022-11-20T09:12:51;29.40;;;16.50;;
5465;SDS011;2755;50.728;7.108;2022-11-20T09:15:17;28.87;;;17.00;;
5465;SDS011;2755;50.728;7.108;2022-11-20T09:17:50;28.10;;;14.47;;
5465;SDS011;2755;50.728;7.108;2022-11-20T09:20:17;26.50;;;15.03;;
5465;SDS011;2755;50.728;7.108;2022-11-20T09:22:42;30.57;;;16.43;;
5465;SDS011;2755;50.728;7.108;2022-11-20T09:25:08;27.47;;;14.97;;
5465;SDS011;2755;50.728;7.108;2022-11-20T09:27:33;25.20;;;14.57;;
5465;SDS011;2755;50.728;7.108;2022-11-20T09:30:00;29.60;;;15.30;;
5465;SDS011;2755;50.728;7.108;2022-11-20T09:32:26;33.60;;;15.97;;
5465;SDS011;2755;50.728;7.108;2022-11-20T09:34:51;20.80;;;12.30;;
5465;SDS011;2755;50.728;7.108;2022-11-20T09:37:17;31.03;;;16.87;;
5465;SDS011;2755;50.728;7.108;2022-11-20T09:39:43;27.63;;;14.80;;
5465;SDS011;2755;50.728;7.108;2022-11-20T09:50:23;26.63;;;14.30;;
5465;SDS011;2755;50.728;7.108;2022-11-20T09:55:42;27.53;;;14.67;;
5465;SDS011;2755;50.728;7.108;2022-11-20T09:58:14;30.53;;;15.77;;
5465;SDS011;2755;50.728;7.108;2022-11-20T10:00:55;26.77;;;14.63;;
5465;SDS011;2755;50.728;7.108;2022-11-20T10:03:50;26.73;;;13.50;;
5465;SDS011;2755;50.728;7.108;2022-11-20T10:06:30;22.60;;;12.90;;
5465;SDS011;2755;50.728;7.108;2022-11-20T10:09:14;19.83;;;11.70;;
5465;SDS011;2755;50.728;7.108;2022-11-20T10:20:03;23.20;;;11.60;;
5465;SDS011;2755;50.728;7.108;2022-11-20T10:25:19;23.27;;;12.10;;
5465;SDS011;2755;50.728;7.108;2022-11-20T10:30:25;18.30;;;10.90;;
5465;SDS011;2755;50.728;7.108;2022-11-20T10:33:02;20.80;;;11.60;;
5465;SDS011;2755;50.728;7.108;2022-11-20T10:35:39;27.13;;;13.43;;
5465;SDS011;2755;50.728;7.108;2022-11-20T10:38:19;20.73;;;11.60;;
5465;SDS011;2755;50.728;7.108;2022-11-20T10:40:49;22.23;;;10.63;;
5465;SDS011;2755;50.728;7.108;2022-11-20T10:43:41;25.53;;;13.80;;
5465;SDS011;2755;50.728;7.108;2022-11-20T10:46:14;23.33;;;13.60;;
5465;SDS011;2755;50.728;7.108;2022-11-20T10:48:43;28.47;;;13.93;;
5465;SDS011;2755;50.728;7.108;2022-11-20T10:56:41;23.07;;;13.67;;
5465;SDS011;2755;50.728;7.108;2022-11-20T11:02:15;22.30;;;12.33;;
5465;SDS011;2755;50.728;7.108;2022-11-20T11:08:17;22.90;;;11.73;;
5465;SDS011;2755;50.728;7.108;2022-11-20T11:10:53;19.93;;;11.27;;
5465;SDS011;2755;50.728;7.108;2022-11-20T11:15:48;20.20;;;9.93;;
5465;SDS011;2755;50.728;7.108;2022-11-20T11:18:23;21.40;;;11.50;;
5465;SDS011;2755;50.728;7.108;2022-11-20T11:20:52;21.50;;;11.30;;
5465;SDS011;2755;50.728;7.108;2022-11-20T11:23:34;24.47;;;12.23;;
5465;SDS011;2755;50.728;7.108;2022-11-20T11:26:06;21.90;;;13.10;;
5465;SDS011;2755;50.728;7.108;2022-11-20T11:28:52;21.40;;;13.00;;
5465;SDS011;2755;50.728;7.108;2022-11-20T11:31:22;21.07;;;11.57;;
5465;SDS011;2755;50.728;7.108;2022-11-20T11:33:52;27.70;;;12.70;;
5465;SDS011;2755;50.728;7.108;2022-11-20T11:36:33;20.80;;;10.37;;
5465;SDS011;2755;50.728;7.108;2022-11-20T11:39:00;23.10;;;12.50;;
5465;SDS011;2755;50.728;7.108;2022-11-20T11:41:29;23.03;;;11.00;;
5465;SDS011;2755;50.728;7.108;2022-11-20T11:47:00;24.83;;;13.10;;
5465;SDS011;2755;50.728;7.108;2022-11-20T11:49:28;29.00;;;14.43;;
5465;SDS011;2755;50.728;7.108;2022-11-20T11:57:23;27.50;;;13.70;;
5465;SDS011;2755;50.728;7.108;2022-11-20T12:00:15;22.73;;;12.90;;
5465;SDS011;2755;50.728;7.108;2022-11-20T12:07:58;27.30;;;13.53;;
5465;SDS011;2755;50.728;7.108;2022-11-20T12:10:38;25.00;;;13.70;;
5465;SDS011;2755;50.728;7.108;2022-11-20T12:16:02;28.33;;;12.87;;
5465;SDS011;2755;50.728;7.108;2022-11-20T12:18:29;26.40;;;13.30;;
5465;SDS011;2755;50.728;7.108;2022-11-20T12:26:48;25.53;;;12.23;;
5465;SDS011;2755;50.728;7.108;2022-11-20T12:29:31;31.13;;;14.30;;
5465;SDS011;2755;50.728;7.108;2022-11-20T12:46:16;27.30;;;13.00;;
5465;SDS011;2755;50.728;7.108;2022-11-20T12:54:49;26.13;;;12.43;;
5465;SDS011;2755;50.728;7.108;2022-11-20T12:57:37;24.53;;;13.50;;
5465;SDS011;2755;50.728;7.108;2022-11-20T13:00:29;21.67;;;12.30;;
5465;SDS011;2755;50.728;7.108;2022-11-20T13:16:26;23.10;;;11.97;;
5465;SDS011;2755;50.728;7.108;2022-11-20T13:19:02;21.37;;;12.60;;
5465;SDS011;2755;50.728;7.108;2022-11-20T13:21:39;23.73;;;12.87;;
5465;SDS011;2755;50.728;7.108;2022-11-20T13:26:48;21.90;;;11.30;;
5465;SDS011;2755;50.728;7.108;2022-11-20T13:29:26;21.57;;;11.87;;
5465;SDS011;2755;50.728;7.108;2022-11-20T13:32:00;24.33;;;11.87;;
5465;SDS011;2755;50.728;7.108;2022-11-20T13:34:50;22.20;;;12.27;;
5465;SDS011;2755;50.728;7.108;2022-11-20T13:37:24;23.53;;;12.53;;
5465;SDS011;2755;50.728;7.108;2022-11-20T13:42:39;20.00;;;11.10;;
5465;SDS011;2755;50.728;7.108;2022-11-20T13:45:23;24.67;;;12.30;;
5465;SDS011;2755;50.728;7.108;2022-11-20T13:47:52;23.73;;;13.23;;
5465;SDS011;2755;50.728;7.108;2022-11-20T13:50:18;23.77;;;12.40;;
5465;SDS011;2755;50.728;7.108;2022-11-20T14:03:32;18.80;;;10.80;;
5465;SDS011;2755;50.728;7.108;2022-11-20T14:06:01;18.90;;;10.43;;
5465;SDS011;2755;50.728;7.108;2022-11-20T14:11:05;18.33;;;11.63;;
5465;SDS011;2755;50.728;7.108;2022-11-20T14:13:39;21.40;;;11.47;;
5465;SDS011;2755;50.728;7.108;2022-11-20T14:16:18;20.70;;;11.50;;
5465;SDS011;2755;50.728;7.108;2022-11-20T14:18:45;18.17;;;10.90;;
5465;SDS011;2755;50.728;7.108;2022-11-20T14:21:10;20.80;;;11.53;;
5465;SDS011;2755;50.728;7.108;2022-11-20T14:23:36;20.90;;;10.97;;
5465;SDS011;2755;50.728;7.108;2022-11-20T14:26:03;17.30;;;10.13;;
5465;SDS011;2755;50.728;7.108;2022-11-20T14:28:29;22.50;;;11.93;;
5465;SDS011;2755;50.728;7.108;2022-11-20T14:30:56;21.37;;;11.77;;
5465;SDS011;2755;50.728;7.108;2022-11-20T14:33:23;19.53;;;11.10;;
5465;SDS011;2755;50.728;7.108;2022-11-20T14:35:56;17.37;;;9.80;;
5465;SDS011;2755;50.728;7.108;2022-11-20T14:38:29;17.63;;;10.23;;
5465;SDS011;2755;50.728;7.108;2022-11-20T14:41:14;16.70;;;10.20;;
5465;SDS011;2755;50.728;7.108;2022-11-20T14:43:46;16.00;;;9.57;;
5465;SDS011;2755;50.728;7.108;2022-11-20T14:46:16;19.13;;;10.40;;
5465;SDS011;2755;50.728;7.108;2022-11-20T14:48:46;16.33;;;9.63;;
5465;SDS011;2755;50.728;7.108;2022-11-20T14:51:57;21.77;;;9.90;;
5465;SDS011;2755;50.728;7.108;2022-11-20T14:56:39;21.17;;;10.03;;
5465;SDS011;2755;50.728;7.108;2022-11-20T14:59:05;19.40;;;10.90;;
5465;SDS011;2755;50.728;7.108;2022-11-20T15:01:32;19.47;;;9.90;;
5465;SDS011;2755;50.728;7.108;2022-11-20T15:04:05;20.80;;;10.57;;
5465;SDS011;2755;50.728;7.108;2022-11-20T15:06:34;17.53;;;8.70;;
5465;SDS011;2755;50.728;7.108;2022-11-20T15:09:01;23.43;;;9.30;;
5465;SDS011;2755;50.728;7.108;2022-11-20T15:11:29;20.43;;;9.37;;
5465;SDS011;2755;50.728;7.108;2022-11-20T15:13:57;18.63;;;8.93;;
5465;SDS011;2755;50.728;7.108;2022-11-20T15:16:26;18.27;;;8.83;;
5465;SDS011;2755;50.728;7.108;2022-11-20T15:18:53;16.40;;;8.03;;
5465;SDS011;2755;50.728;7.108;2022-11-20T15:21:20;14.67;;;7.10;;
5465;SDS011;2755;50.728;7.108;2022-11-20T15:23:46;13.00;;;7.80;;
5465;SDS011;2755;50.728;7.108;2022-11-20T15:26:12;14.90;;;7.30;;
5465;SDS011;2755;50.728;7.108;2022-11-20T15:28:41;13.40;;;7.13;;
5465;SDS011;2755;50.728;7.108;2022-11-20T15:31:12;12.70;;;5.83;;
5465;SDS011;2755;50.728;7.108;2022-11-20T15:33:39;10.20;;;5.40;;
5465;SDS011;2755;50.728;7.108;2022-11-20T15:36:04;14.00;;;6.30;;
5465;SDS011;2755;50.728;7.108;2022-11-20T15:38:30;7.50;;;4.90;;
5465;SDS011;2755;50.728;7.108;2022-11-20T15:40:56;5.30;;;3.70;;
5465;SDS011;2755;50.728;7.108;2022-11-20T15:43:22;6.80;;;4.00;;
5465;SDS011;2755;50.728;7.108;2022-11-20T15:45:47;4.90;;;3.10;;
5465;SDS011;2755;50.728;7.108;2022-11-20T15:48:18;4.87;;;2.67;;
5465;SDS011;2755;50.728;7.108;2022-11-20T15:50:59;4.63;;;3.40;;
5465;SDS011;2755;50.728;7.108;2022-11-20T15:53:29;3.30;;;2.57;;
5465;SDS011;2755;50.728;7.108;2022-11-20T15:55:55;5.20;;;3.07;;
5465;SDS011;2755;50.728;7.108;2022-11-20T15:58:21;2.80;;;2.37;;
5465;SDS011;2755;50.728;7.108;2022-11-20T16:00:49;7.10;;;3.43;;
5465;SDS011;2755;50.728;7.108;2022-11-20T16:03:15;5.77;;;2.50;;
5465;SDS011;2755;50.728;7.108;2022-11-20T16:05:41;3.87;;;2.17;;
5465;SDS011;2755;50.728;7.108;2022-11-20T16:08:07;8.10;;;3.20;;
5465;SDS011;2755;50.728;7.108;2022-11-20T16:10:33;4.30;;;2.90;;
5465;SDS011;2755;50.728;7.108;2022-11-20T16:13:00;8.20;;;4.90;;
5465;SDS011;2755;50.728;7.108;2022-11-20T16:15:52;7.40;;;4.63;;
5465;SDS011;2755;50.728;7.108;2022-11-20T16:18:21;7.37;;;4.30;;
5465;SDS011;2755;50.728;7.108;2022-11-20T16:20:51;6.40;;;4.40;;
5465;SDS011;2755;50.728;7.108;2022-11-20T16:23:18;6.93;;;4.67;;
5465;SDS011;2755;50.728;7.108;2022-11-20T16:25:45;9.93;;;5.67;;
5465;SDS011;2755;50.728;7.108;2022-11-20T16:28:11;13.97;;;6.27;;
5465;SDS011;2755;50.728;7.108;2022-11-20T16:30:37;12.63;;;6.97;;
5465;SDS011;2755;50.728;7.108;2022-11-20T16:33:03;16.77;;;8.30;;
5465;SDS011;2755;50.728;7.108;2022-11-20T16:35:30;10.23;;;6.30;;
5465;SDS011;2755;50.728;7.108;2022-11-20T16:37:56;15.57;;;8.10;;
5465;SDS011;2755;50.728;7.108;2022-11-20T16:40:23;19.93;;;10.17;;
5465;SDS011;2755;50.728;7.108;2022-11-20T16:42:49;26.43;;;10.87;;
5465;SDS011;2755;50.728;7.108;2022-11-20T16:45:16;23.57;;;12.13;;
5465;SDS011;2755;50.728;7.108;2022-11-20T16:47:42;22.17;;;10.90;;
5465;SDS011;2755;50.728;7.108;2022-11-20T16:50:09;20.73;;;10.70;;
5465;SDS011;2755;50.728;7.108;2022-11-20T16:52:34;19.73;;;9.90;;
5465;SDS011;2755;50.728;7.108;2022-11-20T16:55:00;21.60;;;10.57;;
5465;SDS011;2755;50.728;7.108;2022-11-20T16:57:29;23.83;;;10.50;;
5465;SDS011;2755;50.728;7.108;2022-11-20T16:59:59;17.40;;;9.40;;
5465;SDS011;2755;50.728;7.108;2022-11-20T17:02:25;16.50;;;9.43;;
5465;SDS011;2755;50.728;7.108;2022-11-20T17:04:51;12.53;;;8.13;;
5465;SDS011;2755;50.728;7.108;2022-11-20T17:07:17;16.53;;;8.03;;